createdAt,value
2022-08-17T00:00:33.295Z,93656.34
2022-08-17T00:05:48.377Z,93650.22
2022-08-17T00:10:52.070Z,93652.59
2022-08-17T00:16:00.806Z,93640.66
2022-08-17T00:21:04.705Z,93644.63
2022-08-17T00:26:16.451Z,93648.06
2022-08-17T00:31:38.702Z,93640.81
2022-08-17T00:36:41.036Z,93638.97
2022-08-17T00:41:43.512Z,93629.31
2022-08-17T00:46:48.121Z,93637.94
2022-08-17T00:51:55.096Z,93633.41
2022-08-17T00:57:01.634Z,93623.75
2022-08-17T01:02:04.716Z,93623.22
2022-08-17T01:07:07.186Z,93615.00
2022-08-17T01:12:10.706Z,93621.00
2022-08-17T01:17:13.070Z,93619.84
2022-08-17T01:22:18.976Z,93613.72
2022-08-17T01:27:21.727Z,93619.56
2022-08-17T01:32:23.878Z,93619.97
2022-08-17T01:37:36.800Z,93615.41
2022-08-17T01:42:56.071Z,93618.59
2022-08-17T01:47:58.424Z,93619.78
2022-08-17T01:53:04.723Z,93608.91
2022-08-17T01:58:09.943Z,93612.06
2022-08-17T02:03:13.153Z,93604.41
2022-08-17T02:08:19.984Z,93602.47
2022-08-17T02:13:22.480Z,93613.38
2022-08-17T02:18:25.950Z,93603.25
2022-08-17T02:23:29.851Z,93615.28
2022-08-17T02:28:32.480Z,93616.09
2022-08-17T02:33:42.545Z,93619.59
2022-08-17T02:38:45.986Z,93616.53
2022-08-17T02:43:48.352Z,93628.91
2022-08-17T02:48:50.864Z,93635.06
2022-08-17T02:53:53.303Z,93632.44
2022-08-17T02:59:06.369Z,93643.34
2022-08-17T03:04:08.786Z,93632.91
2022-08-17T03:09:10.887Z,93636.75
2022-08-17T03:14:12.946Z,93633.72
2022-08-17T03:19:15.654Z,93632.97
2022-08-17T03:24:18.073Z,93644.94
2022-08-17T03:29:20.368Z,93644.22
2022-08-17T03:34:22.848Z,93642.31
2022-08-17T03:39:25.110Z,93651.16
2022-08-17T03:44:27.340Z,93651.56
2022-08-17T03:49:48.224Z,93655.06
2022-08-17T03:55:09.102Z,93661.97
2022-08-17T04:00:11.916Z,93646.53
2022-08-17T04:05:15.229Z,93652.72
2022-08-17T04:10:17.311Z,93649.25
2022-08-17T04:15:19.555Z,93652.34
2022-08-17T04:20:23.686Z,93656.19
2022-08-17T04:25:27.681Z,93664.66
2022-08-17T04:30:32.404Z,93666.59
2022-08-17T04:36:02.107Z,93663.50
2022-08-17T04:41:23.293Z,93661.94
2022-08-17T04:46:32.984Z,93662.72
2022-08-17T04:51:54.536Z,93666.97
2022-08-17T04:56:58.598Z,93661.94
2022-08-17T05:02:00.926Z,93658.06
2022-08-17T05:07:04.417Z,93668.00
2022-08-17T05:12:06.907Z,93670.31
2022-08-17T05:17:11.162Z,93673.34
2022-08-17T05:22:14.858Z,93687.63
2022-08-17T05:27:18.844Z,93694.94
2022-08-17T05:32:37.820Z,93696.91
2022-08-17T05:37:42.292Z,93701.44
2022-08-17T05:42:44.672Z,93707.25
2022-08-17T05:47:47.652Z,93711.47
2022-08-17T05:53:31.727Z,93709.19
2022-08-17T05:58:50.464Z,93714.59
2022-08-17T06:04:22.154Z,93718.50
2022-08-17T06:09:56.814Z,93712.31
2022-08-17T06:15:17.611Z,93712.28
2022-08-17T06:20:20.433Z,93715.38
2022-08-17T06:25:45.273Z,93720.00
2022-08-17T06:31:00.104Z,93723.88
2022-08-17T06:36:40.411Z,93723.88
2022-08-17T06:42:09.800Z,93724.31
2022-08-17T06:47:49.798Z,93730.88
2022-08-17T06:52:58.493Z,93740.63
2022-08-17T06:58:16.461Z,93742.56
2022-08-17T07:03:27.691Z,93742.94
2022-08-17T07:08:39.501Z,93747.63
2022-08-17T07:14:19.145Z,93747.66
2022-08-17T07:19:24.724Z,93748.41
2022-08-17T07:24:42.006Z,93748.44
2022-08-17T07:29:50.965Z,93753.84
2022-08-17T07:35:11.598Z,93764.66
2022-08-17T07:40:23.910Z,93762.75
2022-08-17T07:45:44.901Z,93761.59
2022-08-17T07:50:53.390Z,93765.13
2022-08-17T07:55:55.642Z,93763.56
2022-08-17T08:01:12.272Z,93767.81
2022-08-17T08:06:23.507Z,93774.75
2022-08-17T08:11:35.096Z,93778.97
2022-08-17T08:16:38.183Z,93780.09
2022-08-17T08:21:59.175Z,93787.44
2022-08-17T08:27:36.389Z,93782.25
2022-08-17T08:32:50.623Z,93777.84
2022-08-17T08:38:11.036Z,93771.81
2022-08-17T08:43:36.374Z,93777.56
2022-08-17T08:48:58.654Z,93774.44
2022-08-17T08:54:17.798Z,93759.38
2022-08-17T08:59:58.289Z,93765.44
2022-08-17T09:05:26.428Z,93757.75
2022-08-17T09:10:40.090Z,93767.63
2022-08-17T09:15:48.117Z,93761.69
2022-08-17T09:20:55.472Z,93756.31
2022-08-17T09:26:07.139Z,93765.28
2022-08-17T09:31:13.859Z,93759.78
2022-08-17T09:36:23.119Z,93760.53
2022-08-17T09:41:49.004Z,93762.72
2022-08-17T09:46:56.246Z,93763.78
2022-08-17T09:52:05.932Z,93756.63
2022-08-17T09:57:30.317Z,93761.09
2022-08-17T10:02:51.792Z,93756.31
2022-08-17T10:08:23.156Z,93745.69
2022-08-17T10:13:52.695Z,93751.44
2022-08-17T10:18:58.318Z,93742.78
2022-08-17T10:24:26.858Z,93748.44
2022-08-17T10:29:46.179Z,93741.09
2022-08-17T10:35:08.956Z,93735.16
2022-08-17T10:40:35.538Z,93732.75
2022-08-17T10:45:45.231Z,93729.00
2022-08-17T10:51:01.783Z,93729.25
2022-08-17T10:56:13.148Z,93727.09
2022-08-17T11:01:16.329Z,93721.47
2022-08-17T11:06:42.499Z,93724.00
2022-08-17T11:12:07.278Z,93723.94
2022-08-17T11:17:43.720Z,93712.00
2022-08-17T11:22:45.824Z,93705.84
2022-08-17T11:27:54.021Z,93714.09
2022-08-17T11:32:58.712Z,93699.13
2022-08-17T11:38:31.741Z,93698.06
2022-08-17T11:43:52.257Z,93699.34
2022-08-17T11:49:18.461Z,93714.06
2022-08-17T11:54:48.292Z,93698.91
2022-08-17T11:59:57.720Z,93697.34
2022-08-17T12:05:21.342Z,93691.84
2022-08-17T12:10:32.106Z,93692.59
2022-08-17T12:15:42.740Z,93688.97
2022-08-17T12:20:46.166Z,93683.97
2022-08-17T12:25:56.970Z,93679.13
2022-08-17T12:31:03.929Z,93675.16
2022-08-17T12:36:09.111Z,93667.31
2022-08-17T12:41:28.756Z,93666.69
2022-08-17T12:46:34.278Z,93660.84
2022-08-17T12:51:36.485Z,93658.50
2022-08-17T12:56:39.242Z,93670.78
2022-08-17T13:01:42.337Z,93669.56
2022-08-17T13:06:51.486Z,93656.31
2022-08-17T13:12:02.254Z,93667.25
2022-08-17T13:17:09.834Z,93673.09
2022-08-17T13:22:13.248Z,93666.31
2022-08-17T13:27:15.454Z,93658.25
2022-08-17T13:32:24.209Z,93656.41
2022-08-17T13:37:33.531Z,93662.69
2022-08-17T13:42:52.924Z,93663.38
2022-08-17T13:48:20.493Z,93660.81
2022-08-17T13:53:37.828Z,93660.41
2022-08-17T13:58:54.240Z,93655.81
2022-08-17T14:03:56.670Z,93647.19
2022-08-17T14:08:59.260Z,93644.69
2022-08-17T14:14:02.004Z,93637.72
2022-08-17T14:19:04.232Z,93628.53
2022-08-17T14:24:08.599Z,93637.84
2022-08-17T14:29:12.616Z,93634.19
2022-08-17T14:34:18.239Z,93630.03
2022-08-17T14:39:21.265Z,93631.75
2022-08-17T14:44:23.491Z,93629.41
2022-08-17T14:49:26.240Z,93628.38
2022-08-17T14:54:34.311Z,93627.88
2022-08-17T14:59:36.808Z,93618.78
2022-08-17T15:04:44.917Z,93620.84
2022-08-17T15:09:47.732Z,93627.00
2022-08-17T15:14:51.173Z,93652.75
2022-08-17T15:19:53.863Z,93670.94
2022-08-17T15:24:56.685Z,93689.75
2022-08-17T15:29:58.902Z,93698.13
2022-08-17T15:35:03.441Z,93700.66
2022-08-17T15:40:07.403Z,93703.78
2022-08-17T15:45:12.983Z,93707.19
2022-08-17T15:50:15.307Z,93706.59
2022-08-17T15:55:23.850Z,93696.75
2022-08-17T16:00:28.554Z,93685.94
2022-08-17T16:05:31.393Z,93677.84
2022-08-17T16:10:34.534Z,93680.19
2022-08-17T16:15:38.392Z,93667.59
2022-08-17T16:20:40.848Z,93676.22
2022-08-17T16:25:52.884Z,93679.78
2022-08-17T16:30:56.639Z,93669.47
2022-08-17T16:35:58.879Z,93673.88
2022-08-17T16:41:01.234Z,93670.13
2022-08-17T16:46:03.920Z,93666.75
2022-08-17T16:51:06.191Z,93664.34
2022-08-17T16:56:08.250Z,93658.88
2022-08-17T17:01:10.795Z,93665.06
2022-08-17T17:06:33.648Z,93660.56
2022-08-17T17:11:44.556Z,93656.91
2022-08-17T17:17:07.917Z,93663.75
2022-08-17T17:22:19.266Z,93656.00
2022-08-17T17:27:41.459Z,93660.63
2022-08-17T17:32:53.030Z,93658.84
2022-08-17T17:37:57.666Z,93666.06
2022-08-17T17:43:20.384Z,93663.72
2022-08-17T17:48:24.024Z,93670.13
2022-08-17T17:53:35.242Z,93666.28
2022-08-17T17:58:58.350Z,93677.03
2022-08-17T18:04:24.729Z,93675.34
2022-08-17T18:09:41.965Z,93684.06
2022-08-17T18:15:07.706Z,93687.13
2022-08-17T18:20:10.338Z,93690.88
2022-08-17T18:25:43.891Z,93701.53
2022-08-17T18:31:07.305Z,93713.41
2022-08-17T18:36:09.558Z,93723.19
2022-08-17T18:41:19.319Z,93729.44
2022-08-17T18:46:37.659Z,93728.22
2022-08-17T18:51:43.151Z,93739.59
2022-08-17T18:57:00.017Z,93741.66
2022-08-17T19:07:43.930Z,93764.88
2022-08-17T19:13:12.563Z,93772.94
2022-08-17T19:18:23.587Z,93800.47
2022-08-17T19:23:53.735Z,93820.63
2022-08-17T19:29:04.624Z,93827.13
2022-08-17T19:34:07.899Z,93838.59
2022-08-17T19:39:13.696Z,93847.53
2022-08-17T19:44:43.560Z,93846.13
2022-08-17T19:50:04.880Z,93838.16
2022-08-17T19:55:21.381Z,93853.03
2022-08-17T20:00:24.411Z,93860.56
2022-08-17T20:05:30.178Z,93858.66
2022-08-17T20:10:54.769Z,93865.28
2022-08-17T20:15:57.365Z,93873.78
2022-08-17T20:21:03.365Z,93876.53
2022-08-17T20:26:05.442Z,93889.31
2022-08-17T20:31:39.640Z,93895.91
2022-08-17T20:37:01.699Z,93907.91
2022-08-17T20:42:24.178Z,93914.88
2022-08-17T20:47:55.134Z,93917.97
2022-08-17T20:53:06.941Z,93922.25
2022-08-17T20:58:14.979Z,93926.56
2022-08-17T21:03:23.085Z,93925.00
2022-08-17T21:08:29.574Z,93920.34
2022-08-17T21:13:55.931Z,93925.78
2022-08-17T21:19:22.762Z,93947.03
2022-08-17T21:24:37.898Z,93945.13
2022-08-17T21:30:14.877Z,93953.69
2022-08-17T21:35:25.438Z,93967.25
2022-08-17T21:40:31.549Z,93967.25
2022-08-17T21:45:36.783Z,93975.38
2022-08-17T21:50:41.791Z,93977.69
2022-08-17T21:55:48.829Z,93976.91
2022-08-17T22:01:10.879Z,93978.09
2022-08-17T22:06:21.998Z,93973.06
2022-08-17T22:11:24.440Z,93981.56
2022-08-17T22:16:30.177Z,93988.91
2022-08-17T22:21:32.714Z,93993.13
2022-08-17T22:26:59.636Z,93992.75
2022-08-17T22:32:01.906Z,94008.25
2022-08-17T22:37:21.377Z,94018.72
2022-08-17T22:42:31.497Z,94029.16
2022-08-17T22:47:43.176Z,94033.44
2022-08-17T22:53:04.399Z,94026.84
2022-08-17T22:58:33.875Z,94033.06
2022-08-17T23:03:56.848Z,94045.03
2022-08-17T23:08:58.955Z,94044.25
2022-08-17T23:14:01.212Z,94040.78
2022-08-17T23:19:03.496Z,94047.75
2022-08-17T23:24:08.005Z,94055.09
2022-08-17T23:29:10.373Z,94061.28
2022-08-17T23:34:14.772Z,94044.66
2022-08-17T23:39:27.738Z,94048.53
2022-08-17T23:44:31.261Z,94045.81
2022-08-17T23:49:34.629Z,94053.16
2022-08-17T23:54:44.866Z,94054.69
2022-08-17T23:59:47.340Z,94065.91
